PWSweather.com
Personal Weather Stations
Station Observations
AC5CV
Greenleaf Peninsula, Waco, TX 76710

Greenleaf PeninsulaWaco, TX 76710

Lat: 31.565, Lon: -97.198

Elevation: 570

Station Type: Ambient WS2080

http://johnchamber.dyndns.info/

Latest ConditionsUpdated 12:25:00 PM CDT Saturday, Oct 21, 2017
Currently Today's Max Today's Min Today's Average
Temperature 81.3°F27.4°C 81.3°F27.4°C 71.4°F21.9°C 74.2°F23.4°C
Dew Point 65.2°F18.4°C 71.6°F22.0°C 64.9°F18.3°C 69.4°F20.8°C
Winds 5.5 mph SSW8.9 kmh SSW 11.0 mph SSE17.7 kmh SSE - 5.0 mph 8.0 kmh
Wind Gusts 12.3 mph19.8 kmh 19.9 mph32.0 kmh - -
Humidity 58% 93% 58% 85%
Pressure 29.32 in992.9 mb 29.36 in994.2 mb 29.30 in992.2 mb -
Hour Temp Dew Point Humidity Winds Wind Gusts Pressure Precip Precip Rate Daily Precip Total
12:25 PM 81.3°F27.4°C 65.2°F18.4°C 58% 5.5 mph SSW8.9 kmh SSW 12.3 mph19.8 kmh 29.32 in992.9 mb 0.00 in0.0 mm 0.00 in0.0 mm 0.00 in0.0 mm
12:20 PM 81.1°F27.3°C 65.4°F18.6°C 59% 8.1 mph SSE13.0 kmh SSE 19.9 mph32.0 kmh 29.32 in992.9 mb 0.00 in0.0 mm 0.00 in0.0 mm 0.00 in0.0 mm
12:15 PM 80.9°F27.2°C 64.9°F18.3°C 58% 5.6 mph SW9.0 kmh SW 7.4 mph11.9 kmh 29.33 in993.2 mb 0.00 in0.0 mm 0.00 in0.0 mm 0.00 in0.0 mm
12:10 PM 80.7°F27.1°C 65.5°F18.6°C 60% 5.2 mph S8.4 kmh S 9.8 mph15.8 kmh 29.33 in993.2 mb 0.00 in0.0 mm 0.00 in0.0 mm 0.00 in0.0 mm
12:05 PM 80.4°F26.9°C 65.3°F18.5°C 60% 7.1 mph S11.4 kmh S 17.4 mph28.0 kmh 29.33 in993.2 mb 0.00 in0.0 mm 0.00 in0.0 mm 0.00 in0.0 mm
12:00 PM 80.4°F26.9°C 65.6°F18.7°C 61% 6.3 mph S10.1 kmh S 17.4 mph28.0 kmh 29.33 in993.2 mb 0.00 in0.0 mm 0.00 in0.0 mm 0.00 in0.0 mm
11:55 AM 80.3°F26.8°C 66.7°F19.3°C 63% 4.2 mph S6.8 kmh S 12.3 mph19.8 kmh 29.33 in993.2 mb 0.00 in0.0 mm 0.00 in0.0 mm 0.00 in0.0 mm
11:50 AM 79.6°F26.4°C 67.0°F19.4°C 66% 4.6 mph SSE7.4 kmh SSE 12.3 mph19.8 kmh 29.34 in993.6 mb 0.00 in0.0 mm 0.00 in0.0 mm 0.00 in0.0 mm
11:45 AM 78.7°F25.9°C 66.2°F19.0°C 66% 4.7 mph SSE7.6 kmh SSE 12.3 mph19.8 kmh 29.34 in993.6 mb 0.00 in0.0 mm 0.00 in0.0 mm 0.00 in0.0 mm
11:40 AM 78.6°F25.9°C 66.2°F19.0°C 66% 3.1 mph WSW5.0 kmh WSW 4.9 mph7.9 kmh 29.34 in993.6 mb 0.00 in0.0 mm 0.00 in0.0 mm 0.00 in0.0 mm
11:35 AM 78.6°F25.9°C 67.0°F19.4°C 68% 2.4 mph SW3.9 kmh SW 7.4 mph11.9 kmh 29.34 in993.6 mb 0.00 in0.0 mm 0.00 in0.0 mm 0.00 in0.0 mm
11:30 AM 78.1°F25.6°C 67.5°F19.7°C 70% 2.0 mph SW3.2 kmh SW 7.4 mph11.9 kmh 29.34 in993.6 mb 0.00 in0.0 mm 0.00 in0.0 mm 0.00 in0.0 mm
11:25 AM 77.3°F25.2°C 67.1°F19.5°C 71% 3.5 mph SW5.6 kmh SW 7.4 mph11.9 kmh 29.34 in993.6 mb 0.00 in0.0 mm 0.00 in0.0 mm 0.00 in0.0 mm
11:20 AM 77.2°F25.1°C 67.5°F19.7°C 72% 2.9 mph SW4.7 kmh SW 9.8 mph15.8 kmh 29.34 in993.6 mb 0.00 in0.0 mm 0.00 in0.0 mm 0.00 in0.0 mm
11:15 AM 77.2°F25.1°C 67.5°F19.7°C 72% 1.6 mph SW2.6 kmh SW 7.4 mph11.9 kmh 29.34 in993.6 mb 0.00 in0.0 mm 0.00 in0.0 mm 0.00 in0.0 mm
11:10 AM 77.6°F25.3°C 67.8°F19.9°C 72% 2.9 mph SW4.7 kmh SW 7.4 mph11.9 kmh 29.34 in993.6 mb 0.00 in0.0 mm 0.00 in0.0 mm 0.00 in0.0 mm
11:05 AM 78.8°F26.0°C 68.6°F20.3°C 71% 4.2 mph S6.8 kmh S 15.0 mph24.1 kmh 29.34 in993.6 mb 0.00 in0.0 mm 0.00 in0.0 mm 0.00 in0.0 mm
11:00 AM 79.2°F26.2°C 68.8°F20.4°C 71% 7.2 mph SE11.6 kmh SE 12.3 mph19.8 kmh 29.34 in993.6 mb 0.00 in0.0 mm 0.00 in0.0 mm 0.00 in0.0 mm
10:55 AM 79.3°F26.3°C 68.0°F20.0°C 68% 6.7 mph SSE10.8 kmh SSE 15.0 mph24.1 kmh 29.34 in993.6 mb 0.00 in0.0 mm 0.00 in0.0 mm 0.00 in0.0 mm
10:50 AM 78.8°F26.0°C 67.8°F19.9°C 69% 7.1 mph SSE11.4 kmh SSE 12.3 mph19.8 kmh 29.34 in993.6 mb 0.00 in0.0 mm 0.00 in0.0 mm 0.00 in0.0 mm
10:45 AM 76.8°F24.9°C 67.4°F19.7°C 73% 5.8 mph S9.3 kmh S 15.0 mph24.1 kmh 29.34 in993.6 mb 0.00 in0.0 mm 0.00 in0.0 mm 0.00 in0.0 mm
10:40 AM 76.6°F24.8°C 68.5°F20.3°C 76% 1.6 mph SW2.6 kmh SW 4.9 mph7.9 kmh 29.34 in993.6 mb 0.00 in0.0 mm 0.00 in0.0 mm 0.00 in0.0 mm
10:35 AM 76.6°F24.8°C 69.3°F20.7°C 78% 2.8 mph S4.5 kmh S 7.4 mph11.9 kmh 29.34 in993.6 mb 0.00 in0.0 mm 0.00 in0.0 mm 0.00 in0.0 mm
10:30 AM 76.5°F24.7°C 69.5°F20.8°C 79% 5.1 mph SE8.2 kmh SE 9.8 mph15.8 kmh 29.35 in993.9 mb 0.00 in0.0 mm 0.00 in0.0 mm 0.00 in0.0 mm
10:25 AM 75.9°F24.4°C 69.0°F20.6°C 79% 9.4 mph SSE15.1 kmh SSE 15.0 mph24.1 kmh 29.34 in993.6 mb 0.00 in0.0 mm 0.00 in0.0 mm 0.00 in0.0 mm
10:20 AM 75.7°F24.3°C 69.7°F20.9°C 82% 5.3 mph S8.5 kmh S 12.3 mph19.8 kmh 29.34 in993.6 mb 0.00 in0.0 mm 0.00 in0.0 mm 0.00 in0.0 mm
10:15 AM 75.7°F24.3°C 70.2°F21.2°C 83% 5.6 mph SSE9.0 kmh SSE 12.3 mph19.8 kmh 29.35 in993.9 mb 0.00 in0.0 mm 0.00 in0.0 mm 0.00 in0.0 mm
10:10 AM 75.7°F24.3°C 70.7°F21.5°C 85% 5.5 mph S8.9 kmh S 12.3 mph19.8 kmh 29.36 in994.2 mb 0.00 in0.0 mm 0.00 in0.0 mm 0.00 in0.0 mm
10:05 AM 75.0°F23.9°C 70.2°F21.2°C 85% 5.7 mph SSE9.2 kmh SSE 15.0 mph24.1 kmh 29.35 in993.9 mb 0.00 in0.0 mm 0.00 in0.0 mm 0.00 in0.0 mm
10:00 AM 74.9°F23.8°C 70.1°F21.2°C 85% 3.7 mph S6.0 kmh S 7.4 mph11.9 kmh 29.34 in993.6 mb 0.00 in0.0 mm 0.00 in0.0 mm 0.00 in0.0 mm
09:55 AM 74.8°F23.8°C 70.1°F21.2°C 85% 4.8 mph SSE7.7 kmh SSE 9.8 mph15.8 kmh 29.35 in993.9 mb 0.00 in0.0 mm 0.00 in0.0 mm 0.00 in0.0 mm
09:50 AM 74.8°F23.8°C 70.7°F21.5°C 87% 4.0 mph S6.4 kmh S 12.3 mph19.8 kmh 29.34 in993.6 mb 0.00 in0.0 mm 0.00 in0.0 mm 0.00 in0.0 mm
09:45 AM 74.1°F23.4°C 70.8°F21.6°C 90% 6.1 mph SE9.8 kmh SE 9.8 mph15.8 kmh 29.34 in993.6 mb 0.00 in0.0 mm 0.00 in0.0 mm 0.00 in0.0 mm
09:40 AM 74.1°F23.4°C 71.0°F21.7°C 90% 7.0 mph SSE11.3 kmh SSE 9.8 mph15.8 kmh 29.34 in993.6 mb 0.00 in0.0 mm 0.00 in0.0 mm 0.00 in0.0 mm
09:35 AM 74.1°F23.4°C 71.3°F21.8°C 91% 4.7 mph SSE7.6 kmh SSE 9.8 mph15.8 kmh 29.34 in993.6 mb 0.00 in0.0 mm 0.00 in0.0 mm 0.00 in0.0 mm
09:30 AM 74.1°F23.4°C 71.6°F22.0°C 92% 6.1 mph SSE9.8 kmh SSE 9.8 mph15.8 kmh 29.34 in993.6 mb 0.00 in0.0 mm 0.00 in0.0 mm 0.00 in0.0 mm
09:25 AM 73.4°F23.0°C 70.9°F21.6°C 92% 6.2 mph S10.0 kmh S 12.3 mph19.8 kmh 29.34 in993.6 mb 0.00 in0.0 mm 0.00 in0.0 mm 0.00 in0.0 mm
09:20 AM 73.4°F23.0°C 71.1°F21.7°C 92% 5.8 mph SSE9.3 kmh SSE 12.3 mph19.8 kmh 29.34 in993.6 mb 0.00 in0.0 mm 0.00 in0.0 mm 0.00 in0.0 mm
09:15 AM 73.4°F23.0°C 71.2°F21.8°C 93% 4.0 mph SSE6.4 kmh SSE 7.4 mph11.9 kmh 29.34 in993.6 mb 0.00 in0.0 mm 0.00 in0.0 mm 0.00 in0.0 mm
09:10 AM 73.4°F23.0°C 71.2°F21.8°C 93% 5.9 mph SE9.5 kmh SE 9.8 mph15.8 kmh 29.34 in993.6 mb 0.00 in0.0 mm 0.00 in0.0 mm 0.00 in0.0 mm
09:05 AM 72.8°F22.7°C 70.8°F21.6°C 93% 8.0 mph SE12.9 kmh SE 12.3 mph19.8 kmh 29.33 in993.2 mb 0.00 in0.0 mm 0.00 in0.0 mm 0.00 in0.0 mm
09:00 AM 72.7°F22.6°C 70.3°F21.3°C 92% 3.9 mph SSE6.3 kmh SSE 9.8 mph15.8 kmh 29.34 in993.6 mb 0.00 in0.0 mm 0.00 in0.0 mm 0.00 in0.0 mm
08:55 AM 72.7°F22.6°C 70.2°F21.2°C 92% 5.3 mph S8.5 kmh S 9.8 mph15.8 kmh 29.33 in993.2 mb 0.00 in0.0 mm 0.00 in0.0 mm 0.00 in0.0 mm
08:50 AM 72.7°F22.6°C 70.2°F21.2°C 92% 4.4 mph SSE7.1 kmh SSE 9.8 mph15.8 kmh 29.32 in992.9 mb 0.00 in0.0 mm 0.00 in0.0 mm 0.00 in0.0 mm
08:45 AM 72.3°F22.4°C 69.8°F21.0°C 92% 6.4 mph SSE10.3 kmh SSE 9.8 mph15.8 kmh 29.32 in992.9 mb 0.00 in0.0 mm 0.00 in0.0 mm 0.00 in0.0 mm
08:40 AM 72.3°F22.4°C 69.8°F21.0°C 92% 6.1 mph SSE9.8 kmh SSE 12.3 mph19.8 kmh 29.32 in992.9 mb 0.00 in0.0 mm 0.00 in0.0 mm 0.00 in0.0 mm
08:35 AM 72.3°F22.4°C 70.1°F21.2°C 93% 5.7 mph SE9.2 kmh SE 12.3 mph19.8 kmh 29.31 in992.6 mb 0.00 in0.0 mm 0.00 in0.0 mm 0.00 in0.0 mm
08:30 AM 72.3°F22.4°C 70.2°F21.2°C 93% 5.8 mph SSE9.3 kmh SSE 12.3 mph19.8 kmh 29.31 in992.6 mb 0.00 in0.0 mm 0.00 in0.0 mm 0.00 in0.0 mm
08:25 AM 72.1°F22.3°C 70.0°F21.1°C 93% 5.5 mph SSE8.9 kmh SSE 9.8 mph15.8 kmh 29.31 in992.6 mb 0.00 in0.0 mm 0.00 in0.0 mm 0.00 in0.0 mm
08:20 AM 72.1°F22.3°C 70.0°F21.1°C 93% 6.0 mph SSE9.7 kmh SSE 9.8 mph15.8 kmh 29.31 in992.6 mb 0.00 in0.0 mm 0.00 in0.0 mm 0.00 in0.0 mm
08:15 AM 72.1°F22.3°C 70.0°F21.1°C 93% 5.9 mph SSE9.5 kmh SSE 9.8 mph15.8 kmh 29.31 in992.6 mb 0.00 in0.0 mm 0.00 in0.0 mm 0.00 in0.0 mm
08:05 AM 72.0°F22.2°C 69.9°F21.1°C 93% 5.4 mph SSE8.7 kmh SSE 9.8 mph15.8 kmh 29.31 in992.6 mb 0.00 in0.0 mm 0.00 in0.0 mm 0.00 in0.0 mm
08:00 AM 72.0°F22.2°C 69.9°F21.1°C 93% 6.7 mph SSE10.8 kmh SSE 12.3 mph19.8 kmh 29.31 in992.6 mb 0.00 in0.0 mm 0.00 in0.0 mm 0.00 in0.0 mm
07:55 AM 72.0°F22.2°C 69.6°F20.9°C 92% 5.9 mph SSE9.5 kmh SSE 9.8 mph15.8 kmh 29.31 in992.6 mb 0.00 in0.0 mm 0.00 in0.0 mm 0.00 in0.0 mm
07:50 AM 72.0°F22.2°C 69.5°F20.8°C 92% 3.4 mph S5.5 kmh S 7.4 mph11.9 kmh 29.31 in992.6 mb 0.00 in0.0 mm 0.00 in0.0 mm 0.00 in0.0 mm
07:45 AM 72.0°F22.2°C 69.5°F20.8°C 92% 3.7 mph SSE6.0 kmh SSE 7.4 mph11.9 kmh 29.31 in992.6 mb 0.00 in0.0 mm 0.00 in0.0 mm 0.00 in0.0 mm
07:40 AM 72.0°F22.2°C 69.5°F20.8°C 92% 4.7 mph SE7.6 kmh SE 9.8 mph15.8 kmh 29.31 in992.6 mb 0.00 in0.0 mm 0.00 in0.0 mm 0.00 in0.0 mm
07:35 AM 72.0°F22.2°C 69.5°F20.8°C 92% 4.2 mph ESE6.8 kmh ESE 12.3 mph19.8 kmh 29.31 in992.6 mb 0.00 in0.0 mm 0.00 in0.0 mm 0.00 in0.0 mm
07:30 AM 72.0°F22.2°C 69.5°F20.8°C 92% 4.8 mph SSE7.7 kmh SSE 9.8 mph15.8 kmh 29.31 in992.6 mb 0.00 in0.0 mm 0.00 in0.0 mm 0.00 in0.0 mm
07:25 AM 71.7°F22.1°C 69.2°F20.7°C 92% 5.6 mph SSE9.0 kmh SSE 9.8 mph15.8 kmh 29.32 in992.9 mb 0.00 in0.0 mm 0.00 in0.0 mm 0.00 in0.0 mm
07:20 AM 71.6°F22.0°C 69.1°F20.6°C 92% 3.3 mph SSE5.3 kmh SSE 9.8 mph15.8 kmh 29.32 in992.9 mb 0.00 in0.0 mm 0.00 in0.0 mm 0.00 in0.0 mm
07:15 AM 71.6°F22.0°C 69.1°F20.6°C 92% 3.6 mph SSE5.8 kmh SSE 9.8 mph15.8 kmh 29.32 in992.9 mb 0.00 in0.0 mm 0.00 in0.0 mm 0.00 in0.0 mm
07:10 AM 71.6°F22.0°C 69.1°F20.6°C 92% 2.5 mph SSE4.0 kmh SSE 7.4 mph11.9 kmh 29.32 in992.9 mb 0.00 in0.0 mm 0.00 in0.0 mm 0.00 in0.0 mm
07:05 AM 71.4°F21.9°C 69.1°F20.6°C 92% 3.3 mph SE5.3 kmh SE 7.4 mph11.9 kmh 29.32 in992.9 mb 0.00 in0.0 mm 0.00 in0.0 mm 0.00 in0.0 mm
07:00 AM 71.4°F21.9°C 68.9°F20.5°C 92% 3.7 mph SE6.0 kmh SE 4.9 mph7.9 kmh 29.32 in992.9 mb 0.00 in0.0 mm 0.00 in0.0 mm 0.00 in0.0 mm
06:55 AM 71.4°F21.9°C 68.9°F20.5°C 92% 2.7 mph SE4.3 kmh SE 4.9 mph7.9 kmh 29.32 in992.9 mb 0.00 in0.0 mm 0.00 in0.0 mm 0.00 in0.0 mm
06:50 AM 71.4°F21.9°C 68.9°F20.5°C 92% 4.9 mph SE7.9 kmh SE 9.8 mph15.8 kmh 29.32 in992.9 mb 0.00 in0.0 mm 0.00 in0.0 mm 0.00 in0.0 mm
06:45 AM 71.4°F21.9°C 68.9°F20.5°C 92% 2.9 mph SSE4.7 kmh SSE 9.8 mph15.8 kmh 29.32 in992.9 mb 0.00 in0.0 mm 0.00 in0.0 mm 0.00 in0.0 mm
06:40 AM 71.4°F21.9°C 68.9°F20.5°C 92% 2.8 mph SE4.5 kmh SE 7.4 mph11.9 kmh 29.32 in992.9 mb 0.00 in0.0 mm 0.00 in0.0 mm 0.00 in0.0 mm
06:35 AM 71.4°F21.9°C 68.9°F20.5°C 92% 3.1 mph E5.0 kmh E 4.9 mph7.9 kmh 29.32 in992.9 mb 0.00 in0.0 mm 0.00 in0.0 mm 0.00 in0.0 mm
06:30 AM 71.4°F21.9°C 68.7°F20.4°C 91% 2.8 mph SE4.5 kmh SE 4.9 mph7.9 kmh 29.32 in992.9 mb 0.00 in0.0 mm 0.00 in0.0 mm 0.00 in0.0 mm
06:25 AM 71.8°F22.1°C 68.8°F20.4°C 90% 3.0 mph SE4.8 kmh SE 4.9 mph7.9 kmh 29.31 in992.6 mb 0.00 in0.0 mm 0.00 in0.0 mm 0.00 in0.0 mm
06:20 AM 72.0°F22.2°C 68.9°F20.5°C 90% 2.2 mph SSE3.5 kmh SSE 4.9 mph7.9 kmh 29.32 in992.9 mb 0.00 in0.0 mm 0.00 in0.0 mm 0.00 in0.0 mm
06:15 AM 72.0°F22.2°C 68.9°F20.5°C 90% 1.9 mph SSE3.1 kmh SSE 9.8 mph15.8 kmh 29.32 in992.9 mb 0.00 in0.0 mm 0.00 in0.0 mm 0.00 in0.0 mm
06:10 AM 72.0°F22.2°C 68.8°F20.4°C 90% 2.8 mph SE4.5 kmh SE 9.8 mph15.8 kmh 29.32 in992.9 mb 0.00 in0.0 mm 0.00 in0.0 mm 0.00 in0.0 mm
06:05 AM 72.2°F22.3°C 68.8°F20.4°C 89% 2.5 mph SE4.0 kmh SE 4.9 mph7.9 kmh 29.32 in992.9 mb 0.00 in0.0 mm 0.00 in0.0 mm 0.00 in0.0 mm
06:00 AM 72.5°F22.5°C 69.1°F20.6°C 89% 2.4 mph SE3.9 kmh SE 7.4 mph11.9 kmh 29.31 in992.6 mb 0.00 in0.0 mm 0.00 in0.0 mm 0.00 in0.0 mm
05:55 AM 72.5°F22.5°C 69.1°F20.6°C 89% 2.8 mph SE4.5 kmh SE 4.9 mph7.9 kmh 29.31 in992.6 mb 0.00 in0.0 mm 0.00 in0.0 mm 0.00 in0.0 mm
05:50 AM 72.5°F22.5°C 69.1°F20.6°C 89% 3.2 mph SSE5.1 kmh SSE 4.9 mph7.9 kmh 29.32 in992.9 mb 0.00 in0.0 mm 0.00 in0.0 mm 0.00 in0.0 mm
05:45 AM 72.7°F22.6°C 69.3°F20.7°C 89% 3.2 mph SSE5.1 kmh SSE 4.9 mph7.9 kmh 29.31 in992.6 mb 0.00 in0.0 mm 0.00 in0.0 mm 0.00 in0.0 mm
05:40 AM 72.7°F22.6°C 69.3°F20.7°C 89% 3.7 mph SSE6.0 kmh SSE 9.8 mph15.8 kmh 29.31 in992.6 mb 0.00 in0.0 mm 0.00 in0.0 mm 0.00 in0.0 mm
05:35 AM 72.7°F22.6°C 69.1°F20.6°C 88% 2.7 mph S4.3 kmh S 4.9 mph7.9 kmh 29.31 in992.6 mb 0.00 in0.0 mm 0.00 in0.0 mm 0.00 in0.0 mm
05:30 AM 72.8°F22.7°C 69.0°F20.6°C 88% 3.3 mph S5.3 kmh S 7.4 mph11.9 kmh 29.31 in992.6 mb 0.00 in0.0 mm 0.00 in0.0 mm 0.00 in0.0 mm
05:25 AM 72.9°F22.7°C 69.2°F20.7°C 88% 2.8 mph SE4.5 kmh SE 4.9 mph7.9 kmh 29.31 in992.6 mb 0.00 in0.0 mm 0.00 in0.0 mm 0.00 in0.0 mm
05:20 AM 73.2°F22.9°C 69.4°F20.8°C 88% 2.8 mph SSE4.5 kmh SSE 9.8 mph15.8 kmh 29.31 in992.6 mb 0.00 in0.0 mm 0.00 in0.0 mm 0.00 in0.0 mm
05:15 AM 73.2°F22.9°C 69.4°F20.8°C 88% 5.0 mph SSE8.0 kmh SSE 7.4 mph11.9 kmh 29.31 in992.6 mb 0.00 in0.0 mm 0.00 in0.0 mm 0.00 in0.0 mm
05:10 AM 73.3°F22.9°C 69.5°F20.8°C 88% 3.2 mph SE5.1 kmh SE 7.4 mph11.9 kmh 29.31 in992.6 mb 0.00 in0.0 mm 0.00 in0.0 mm 0.00 in0.0 mm
05:05 AM 73.4°F23.0°C 69.6°F20.9°C 88% 2.2 mph SSE3.5 kmh SSE 4.9 mph7.9 kmh 29.30 in992.2 mb 0.00 in0.0 mm 0.00 in0.0 mm 0.00 in0.0 mm
05:00 AM 73.4°F23.0°C 69.6°F20.9°C 88% 3.5 mph SE5.6 kmh SE 7.4 mph11.9 kmh 29.30 in992.2 mb 0.00 in0.0 mm 0.00 in0.0 mm 0.00 in0.0 mm
04:55 AM 73.4°F23.0°C 69.6°F20.9°C 88% 2.6 mph SE4.2 kmh SE 7.4 mph11.9 kmh 29.30 in992.2 mb 0.00 in0.0 mm 0.00 in0.0 mm 0.00 in0.0 mm
04:50 AM 73.4°F23.0°C 69.6°F20.9°C 88% 3.0 mph S4.8 kmh S 4.9 mph7.9 kmh 29.30 in992.2 mb 0.00 in0.0 mm 0.00 in0.0 mm 0.00 in0.0 mm
04:45 AM 73.4°F23.0°C 69.7°F20.9°C 88% 2.0 mph S3.2 kmh S 4.9 mph7.9 kmh 29.30 in992.2 mb 0.00 in0.0 mm 0.00 in0.0 mm 0.00 in0.0 mm
04:40 AM 73.6°F23.1°C 69.8°F21.0°C 88% 4.4 mph SSE7.1 kmh SSE 9.8 mph15.8 kmh 29.30 in992.2 mb 0.00 in0.0 mm 0.00 in0.0 mm 0.00 in0.0 mm
04:35 AM 73.6°F23.1°C 69.8°F21.0°C 88% 3.2 mph SSE5.1 kmh SSE 7.4 mph11.9 kmh 29.30 in992.2 mb 0.00 in0.0 mm 0.00 in0.0 mm 0.00 in0.0 mm
04:30 AM 73.6°F23.1°C 69.8°F21.0°C 88% 1.3 mph S2.1 kmh S 4.9 mph7.9 kmh 29.30 in992.2 mb 0.00 in0.0 mm 0.00 in0.0 mm 0.00 in0.0 mm
04:25 AM 73.6°F23.1°C 69.8°F21.0°C 88% 2.0 mph SSE3.2 kmh SSE 4.9 mph7.9 kmh 29.30 in992.2 mb 0.00 in0.0 mm 0.00 in0.0 mm 0.00 in0.0 mm
04:20 AM 73.6°F23.1°C 69.8°F21.0°C 88% 4.0 mph S6.4 kmh S 7.4 mph11.9 kmh 29.31 in992.6 mb 0.00 in0.0 mm 0.00 in0.0 mm 0.00 in0.0 mm
04:15 AM 73.6°F23.1°C 69.5°F20.8°C 87% 3.4 mph S5.5 kmh S 7.4 mph11.9 kmh 29.31 in992.6 mb 0.00 in0.0 mm 0.00 in0.0 mm 0.00 in0.0 mm
04:10 AM 73.7°F23.2°C 69.6°F20.9°C 87% 4.6 mph SSE7.4 kmh SSE 7.4 mph11.9 kmh 29.31 in992.6 mb 0.00 in0.0 mm 0.00 in0.0 mm 0.00 in0.0 mm
04:05 AM 73.8°F23.2°C 69.7°F20.9°C 87% 3.9 mph SSE6.3 kmh SSE 7.4 mph11.9 kmh 29.31 in992.6 mb 0.00 in0.0 mm 0.00 in0.0 mm 0.00 in0.0 mm
04:00 AM 73.9°F23.3°C 69.8°F21.0°C 87% 2.8 mph SSE4.5 kmh SSE 4.9 mph7.9 kmh 29.31 in992.6 mb 0.00 in0.0 mm 0.00 in0.0 mm 0.00 in0.0 mm
03:55 AM 73.9°F23.3°C 69.8°F21.0°C 87% 6.3 mph SSE10.1 kmh SSE 9.8 mph15.8 kmh 29.31 in992.6 mb 0.00 in0.0 mm 0.00 in0.0 mm 0.00 in0.0 mm
03:50 AM 73.9°F23.3°C 69.8°F21.0°C 87% 4.5 mph SSE7.2 kmh SSE 9.8 mph15.8 kmh 29.31 in992.6 mb 0.00 in0.0 mm 0.00 in0.0 mm 0.00 in0.0 mm
03:45 AM 73.9°F23.3°C 69.8°F21.0°C 87% 4.6 mph SSE7.4 kmh SSE 7.4 mph11.9 kmh 29.31 in992.6 mb 0.00 in0.0 mm 0.00 in0.0 mm 0.00 in0.0 mm
03:40 AM 73.9°F23.3°C 69.8°F21.0°C 87% 5.9 mph SSE9.5 kmh SSE 9.8 mph15.8 kmh 29.31 in992.6 mb 0.00 in0.0 mm 0.00 in0.0 mm 0.00 in0.0 mm
03:35 AM 73.9°F23.3°C 69.8°F21.0°C 87% 3.7 mph SSE6.0 kmh SSE 9.8 mph15.8 kmh 29.31 in992.6 mb 0.00 in0.0 mm 0.00 in0.0 mm 0.00 in0.0 mm
03:30 AM 73.9°F23.3°C 69.8°F21.0°C 87% 4.5 mph SSE7.2 kmh SSE 12.3 mph19.8 kmh 29.31 in992.6 mb 0.00 in0.0 mm 0.00 in0.0 mm 0.00 in0.0 mm
03:25 AM 73.9°F23.3°C 69.8°F21.0°C 87% 5.7 mph S9.2 kmh S 9.8 mph15.8 kmh 29.31 in992.6 mb 0.00 in0.0 mm 0.00 in0.0 mm 0.00 in0.0 mm
03:20 AM 73.9°F23.3°C 69.8°F21.0°C 87% 4.2 mph SSE6.8 kmh SSE 7.4 mph11.9 kmh 29.31 in992.6 mb 0.00 in0.0 mm 0.00 in0.0 mm 0.00 in0.0 mm
03:15 AM 73.9°F23.3°C 69.8°F21.0°C 87% 5.4 mph SSE8.7 kmh SSE 9.8 mph15.8 kmh 29.31 in992.6 mb 0.00 in0.0 mm 0.00 in0.0 mm 0.00 in0.0 mm
03:10 AM 73.9°F23.3°C 69.8°F21.0°C 87% 4.8 mph S7.7 kmh S 9.8 mph15.8 kmh 29.31 in992.6 mb 0.00 in0.0 mm 0.00 in0.0 mm 0.00 in0.0 mm
03:05 AM 73.9°F23.3°C 69.8°F21.0°C 87% 6.9 mph SSE11.1 kmh SSE 12.3 mph19.8 kmh 29.31 in992.6 mb 0.00 in0.0 mm 0.00 in0.0 mm 0.00 in0.0 mm
03:00 AM 73.9°F23.3°C 70.0°F21.1°C 88% 5.7 mph S9.2 kmh S 9.8 mph15.8 kmh 29.31 in992.6 mb 0.00 in0.0 mm 0.00 in0.0 mm 0.00 in0.0 mm
02:55 AM 73.9°F23.3°C 70.1°F21.2°C 88% 8.1 mph SSE13.0 kmh SSE 12.3 mph19.8 kmh 29.31 in992.6 mb 0.00 in0.0 mm 0.00 in0.0 mm 0.00 in0.0 mm
02:50 AM 73.9°F23.3°C 70.1°F21.2°C 88% 4.1 mph SSE6.6 kmh SSE 15.0 mph24.1 kmh 29.32 in992.9 mb 0.00 in0.0 mm 0.00 in0.0 mm 0.00 in0.0 mm
02:45 AM 73.9°F23.3°C 70.1°F21.2°C 88% 5.9 mph SSE9.5 kmh SSE 12.3 mph19.8 kmh 29.32 in992.9 mb 0.00 in0.0 mm 0.00 in0.0 mm 0.00 in0.0 mm
02:40 AM 73.9°F23.3°C 70.1°F21.2°C 88% 6.6 mph SSE10.6 kmh SSE 12.3 mph19.8 kmh 29.31 in992.6 mb 0.00 in0.0 mm 0.00 in0.0 mm 0.00 in0.0 mm
02:35 AM 73.9°F23.3°C 70.1°F21.2°C 88% 7.7 mph SSE12.4 kmh SSE 9.8 mph15.8 kmh 29.32 in992.9 mb 0.00 in0.0 mm 0.00 in0.0 mm 0.00 in0.0 mm
02:30 AM 73.9°F23.3°C 70.1°F21.2°C 88% 4.4 mph SE7.1 kmh SE 9.8 mph15.8 kmh 29.32 in992.9 mb 0.00 in0.0 mm 0.00 in0.0 mm 0.00 in0.0 mm
02:25 AM 73.9°F23.3°C 70.1°F21.2°C 88% 6.5 mph S10.5 kmh S 17.4 mph28.0 kmh 29.32 in992.9 mb 0.00 in0.0 mm 0.00 in0.0 mm 0.00 in0.0 mm
02:20 AM 73.9°F23.3°C 70.1°F21.2°C 88% 6.3 mph SSE10.1 kmh SSE 15.0 mph24.1 kmh 29.32 in992.9 mb 0.00 in0.0 mm 0.00 in0.0 mm 0.00 in0.0 mm
02:15 AM 73.9°F23.3°C 70.1°F21.2°C 88% 9.6 mph SSE15.4 kmh SSE 15.0 mph24.1 kmh 29.32 in992.9 mb 0.00 in0.0 mm 0.00 in0.0 mm 0.00 in0.0 mm
02:10 AM 74.0°F23.3°C 70.2°F21.2°C 88% 6.5 mph S10.5 kmh S 12.3 mph19.8 kmh 29.32 in992.9 mb 0.00 in0.0 mm 0.00 in0.0 mm 0.00 in0.0 mm
02:05 AM 74.1°F23.4°C 70.3°F21.3°C 88% 6.6 mph SSE10.6 kmh SSE 15.0 mph24.1 kmh 29.32 in992.9 mb 0.00 in0.0 mm 0.00 in0.0 mm 0.00 in0.0 mm
02:00 AM 74.1°F23.4°C 70.3°F21.3°C 88% 8.2 mph SSE13.2 kmh SSE 12.3 mph19.8 kmh 29.32 in992.9 mb 0.00 in0.0 mm 0.00 in0.0 mm 0.00 in0.0 mm
01:55 AM 74.1°F23.4°C 70.3°F21.3°C 88% 5.5 mph SSE8.9 kmh SSE 12.3 mph19.8 kmh 29.32 in992.9 mb 0.00 in0.0 mm 0.00 in0.0 mm 0.00 in0.0 mm
01:50 AM 74.1°F23.4°C 70.3°F21.3°C 88% 7.9 mph SSE12.7 kmh SSE 12.3 mph19.8 kmh 29.32 in992.9 mb 0.00 in0.0 mm 0.00 in0.0 mm 0.00 in0.0 mm
01:45 AM 74.1°F23.4°C 70.3°F21.3°C 88% 4.3 mph SE6.9 kmh SE 7.4 mph11.9 kmh 29.32 in992.9 mb 0.00 in0.0 mm 0.00 in0.0 mm 0.00 in0.0 mm
01:40 AM 73.9°F23.3°C 70.2°F21.2°C 88% 10.5 mph SSE16.9 kmh SSE 15.0 mph24.1 kmh 29.32 in992.9 mb 0.00 in0.0 mm 0.00 in0.0 mm 0.00 in0.0 mm
01:35 AM 73.9°F23.3°C 70.1°F21.2°C 88% 5.5 mph SSE8.9 kmh SSE 9.8 mph15.8 kmh 29.32 in992.9 mb 0.00 in0.0 mm 0.00 in0.0 mm 0.00 in0.0 mm
01:30 AM 73.9°F23.3°C 70.1°F21.2°C 88% 5.4 mph SE8.7 kmh SE 12.3 mph19.8 kmh 29.32 in992.9 mb 0.00 in0.0 mm 0.00 in0.0 mm 0.00 in0.0 mm
01:25 AM 73.9°F23.3°C 70.1°F21.2°C 88% 8.5 mph S13.7 kmh S 15.0 mph24.1 kmh 29.32 in992.9 mb 0.00 in0.0 mm 0.00 in0.0 mm 0.00 in0.0 mm
01:20 AM 73.9°F23.3°C 70.1°F21.2°C 88% 7.1 mph SSE11.4 kmh SSE 9.8 mph15.8 kmh 29.32 in992.9 mb 0.00 in0.0 mm 0.00 in0.0 mm 0.00 in0.0 mm
01:15 AM 73.9°F23.3°C 70.1°F21.2°C 88% 7.6 mph SSE12.2 kmh SSE 15.0 mph24.1 kmh 29.31 in992.6 mb 0.00 in0.0 mm 0.00 in0.0 mm 0.00 in0.0 mm
01:10 AM 73.9°F23.3°C 70.1°F21.2°C 88% 7.3 mph SE11.7 kmh SE 15.0 mph24.1 kmh 29.32 in992.9 mb 0.00 in0.0 mm 0.00 in0.0 mm 0.00 in0.0 mm
01:05 AM 73.9°F23.3°C 70.1°F21.2°C 88% 5.5 mph SE8.9 kmh SE 9.8 mph15.8 kmh 29.32 in992.9 mb 0.00 in0.0 mm 0.00 in0.0 mm 0.00 in0.0 mm
01:00 AM 73.9°F23.3°C 70.1°F21.2°C 88% 8.9 mph SSE14.3 kmh SSE 15.0 mph24.1 kmh 29.32 in992.9 mb 0.00 in0.0 mm 0.00 in0.0 mm 0.00 in0.0 mm
12:55 AM 73.9°F23.3°C 70.1°F21.2°C 88% 7.1 mph SSE11.4 kmh SSE 17.4 mph28.0 kmh 29.32 in992.9 mb 0.00 in0.0 mm 0.00 in0.0 mm 0.00 in0.0 mm
12:50 AM 73.9°F23.3°C 69.9°F21.1°C 87% 7.3 mph S11.7 kmh S 12.3 mph19.8 kmh 29.32 in992.9 mb 0.00 in0.0 mm 0.00 in0.0 mm 0.00 in0.0 mm
12:45 AM 73.9°F23.3°C 69.8°F21.0°C 87% 5.8 mph SE9.3 kmh SE 9.8 mph15.8 kmh 29.32 in992.9 mb 0.00 in0.0 mm 0.00 in0.0 mm 0.00 in0.0 mm
12:40 AM 73.9°F23.3°C 69.8°F21.0°C 87% 7.9 mph SSE12.7 kmh SSE 12.3 mph19.8 kmh 29.33 in993.2 mb 0.00 in0.0 mm 0.00 in0.0 mm 0.00 in0.0 mm
12:35 AM 73.9°F23.3°C 69.8°F21.0°C 87% 4.0 mph SE6.4 kmh SE 7.4 mph11.9 kmh 29.33 in993.2 mb 0.00 in0.0 mm 0.00 in0.0 mm 0.00 in0.0 mm
12:30 AM 73.9°F23.3°C 69.6°F20.9°C 86% 6.8 mph SSE10.9 kmh SSE 9.8 mph15.8 kmh 29.33 in993.2 mb 0.00 in0.0 mm 0.00 in0.0 mm 0.00 in0.0 mm
12:25 AM 73.9°F23.3°C 69.4°F20.8°C 86% 9.3 mph SE15.0 kmh SE 12.3 mph19.8 kmh 29.32 in992.9 mb 0.00 in0.0 mm 0.00 in0.0 mm 0.00 in0.0 mm
12:20 AM 73.8°F23.2°C 69.4°F20.8°C 86% 7.6 mph SSE12.2 kmh SSE 19.9 mph32.0 kmh 29.32 in992.9 mb 0.00 in0.0 mm 0.00 in0.0 mm 0.00 in0.0 mm
12:15 AM 73.8°F23.2°C 69.3°F20.7°C 86% 11.0 mph SSE17.7 kmh SSE 19.9 mph32.0 kmh 29.33 in993.2 mb 0.00 in0.0 mm 0.00 in0.0 mm 0.00 in0.0 mm
12:10 AM 73.8°F23.2°C 69.3°F20.7°C 86% 8.9 mph SSE14.3 kmh SSE 17.4 mph28.0 kmh 29.33 in993.2 mb 0.00 in0.0 mm 0.00 in0.0 mm 0.00 in0.0 mm
12:05 AM 73.8°F23.2°C 69.3°F20.7°C 86% 6.6 mph ESE10.6 kmh ESE 15.0 mph24.1 kmh 29.34 in993.6 mb 0.00 in0.0 mm 0.00 in0.0 mm 0.00 in0.0 mm
12:00 AM 73.9°F23.3°C 69.4°F20.8°C 86% 4.3 mph SE6.9 kmh SE 9.8 mph15.8 kmh 29.34 in993.6 mb 0.00 in0.0 mm 0.00 in0.0 mm 0.00 in0.0 mm